Time;durP1;ratioP1;P1;durP2;ratioP2;P2;SDS_P1;SDS_P2;PMS_P1;PMS_P2;Temp;Humidity;BMP_temperature;BMP_pressure;BME280_temperature;BME280_humidity;BME280_pressure;Samples;Min_cycle;Max_cycle;Signal;HPM_P1;HPM_P2
2021/03/07 00:01:30;;;;;;;16.98;9.52;;;-4.00;99.90;;;;;;5086611;28;20068;-72
2021/03/07 00:03:55;;;;;;;15.88;9.70;;;-4.00;99.90;;;;;;5087693;28;20035;-73
2021/03/07 00:06:21;;;;;;;18.55;9.73;;;-4.00;99.90;;;;;;5085845;28;20435;-73
2021/03/07 00:08:47;;;;;;;18.77;9.95;;;-4.00;99.90;;;;;;5081207;28;20027;-72
2021/03/07 00:11:12;;;;;;;15.75;8.93;;;-4.00;99.90;;;;;;5081271;28;20103;-72
2021/03/07 00:13:38;;;;;;;17.15;9.13;;;-4.00;99.90;;;;;;5079234;28;20024;-73
2021/03/07 00:16:04;;;;;;;15.82;9.43;;;-4.10;99.90;;;;;;5078030;28;20120;-73
2021/03/07 00:18:29;;;;;;;14.32;8.18;;;-4.00;99.90;;;;;;5077802;28;20115;-73
2021/03/07 00:20:55;;;;;;;17.58;9.13;;;-4.10;99.90;;;;;;5076931;28;20020;-72
2021/03/07 00:23:20;;;;;;;16.85;8.65;;;-4.10;99.90;;;;;;5076752;28;20093;-73
2021/03/07 00:25:46;;;;;;;16.48;8.80;;;-4.10;99.90;;;;;;5076637;28;20071;-73
2021/03/07 00:28:11;;;;;;;14.68;7.80;;;-4.10;99.90;;;;;;5076637;28;20020;-73
2021/03/07 00:30:37;;;;;;;15.02;8.20;;;-4.10;99.90;;;;;;5076315;28;20508;-73
2021/03/07 00:33:03;;;;;;;14.77;8.93;;;-4.20;99.90;;;;;;5076503;28;20381;-73
2021/03/07 00:35:29;;;;;;;14.40;7.47;;;-4.10;99.90;;;;;;5076719;28;20077;-73
2021/03/07 00:37:54;;;;;;;13.88;8.00;;;-4.10;99.90;;;;;;5076264;28;20443;-73
2021/03/07 00:40:20;;;;;;;17.75;9.18;;;-4.20;99.90;;;;;;5076230;28;20432;-72
2021/03/07 00:42:47;;;;;;;16.55;8.50;;;-4.10;99.90;;;;;;5076213;28;20058;-72
2021/03/07 00:45:14;;;;;;;14.02;8.38;;;-4.20;99.90;;;;;;5076120;28;20031;-72
2021/03/07 00:47:40;;;;;;;16.90;8.43;;;-4.20;99.90;;;;;;5076007;28;20469;-72
2021/03/07 00:50:26;;;;;;;16.92;8.05;;;-4.20;99.90;;;;;;5075935;28;20024;-73
2021/03/07 00:52:56;;;;;;;16.52;7.97;;;-4.10;99.90;;;;;;5076062;28;20028;-73
2021/03/07 00:55:22;;;;;;;14.65;7.85;;;-4.20;99.90;;;;;;5075973;28;20024;-72
2021/03/07 00:57:48;;;;;;;17.80;8.68;;;-4.20;99.90;;;;;;5075816;28;20115;-72
2021/03/07 01:00:19;;;;;;;16.65;8.30;;;-4.30;99.90;;;;;;5075928;28;20059;-72
2021/03/07 01:02:44;;;;;;;15.07;8.88;;;-4.30;99.90;;;;;;5076105;28;20020;-72
2021/03/07 01:05:11;;;;;;;15.73;8.20;;;-4.30;99.90;;;;;;5075516;28;20028;-72
2021/03/07 01:07:37;;;;;;;17.00;9.68;;;-4.30;99.90;;;;;;5075545;28;20028;-72
2021/03/07 01:10:17;;;;;;;15.88;8.93;;;-4.30;99.90;;;;;;5075725;28;20028;-72
2021/03/07 01:12:43;;;;;;;16.70;8.57;;;-4.40;99.90;;;;;;5075555;28;20097;-73
2021/03/07 01:15:09;;;;;;;18.15;8.90;;;-4.40;99.90;;;;;;5075603;28;20032;-72
2021/03/07 01:17:35;;;;;;;16.85;8.40;;;-4.40;99.90;;;;;;5075356;28;20024;-72
2021/03/07 01:20:06;;;;;;;13.55;8.10;;;-4.40;99.90;;;;;;5075235;28;20111;-73
2021/03/07 01:22:32;;;;;;;14.73;8.55;;;-4.50;99.90;;;;;;5075249;28;20034;-72
2021/03/07 01:24:58;;;;;;;14.63;7.57;;;-4.50;99.90;;;;;;5075302;28;20111;-73
2021/03/07 01:27:23;;;;;;;16.67;9.18;;;-4.50;99.90;;;;;;5075211;28;20020;-73
2021/03/07 01:29:49;;;;;;;20.08;10.68;;;-4.50;99.90;;;;;;5075269;28;20020;-73
2021/03/07 01:32:14;;;;;;;15.45;8.90;;;-4.60;99.90;;;;;;5075063;28;20058;-73
2021/03/07 01:34:40;;;;;;;17.52;9.45;;;-4.60;99.90;;;;;;5075214;28;20032;-72
2021/03/07 01:37:05;;;;;;;16.85;8.18;;;-4.60;99.90;;;;;;5075271;28;20028;-72
2021/03/07 01:39:31;;;;;;;14.60;8.38;;;-4.60;99.90;;;;;;5075132;28;20024;-72
2021/03/07 01:41:56;;;;;;;19.20;9.32;;;-4.60;99.90;;;;;;5075099;28;20032;-72
2021/03/07 01:44:22;;;;;;;16.92;8.52;;;-4.70;99.90;;;;;;5093173;28;20095;-72
2021/03/07 01:46:48;;;;;;;16.83;9.15;;;-4.70;99.90;;;;;;5075107;28;20069;-72
2021/03/07 01:49:13;;;;;;;20.08;8.93;;;-4.70;99.90;;;;;;5075077;28;20024;-72
2021/03/07 01:51:39;;;;;;;20.50;9.43;;;-4.70;99.90;;;;;;5075121;28;20046;-73
2021/03/07 01:54:05;;;;;;;19.40;9.45;;;-4.70;99.90;;;;;;5075122;28;20031;-72
2021/03/07 01:56:32;;;;;;;17.30;9.68;;;-4.70;99.90;;;;;;5075069;28;20028;-72
2021/03/07 01:59:01;;;;;;;16.98;9.20;;;-4.70;99.90;;;;;;5075225;28;20032;-72
2021/03/07 02:01:27;;;;;;;16.58;9.77;;;-4.70;99.90;;;;;;5075542;28;20051;-72
2021/03/07 02:03:53;;;;;;;19.45;10.98;;;-4.70;99.90;;;;;;5075741;28;20072;-72
2021/03/07 02:06:21;;;;;;;21.63;11.90;;;-4.70;99.90;;;;;;5094123;28;20484;-72
2021/03/07 02:08:48;;;;;;;26.33;11.80;;;-4.70;99.90;;;;;;5075121;28;20051;-72
2021/03/07 02:11:14;;;;;;;22.60;11.50;;;-4.70;99.90;;;;;;5074832;28;20021;-72
2021/03/07 02:13:42;;;;;;;22.98;11.38;;;-4.70;99.90;;;;;;5074884;28;20030;-72
2021/03/07 02:16:21;;;;;;;20.90;11.27;;;-4.70;99.90;;;;;;5074980;28;20066;-72
2021/03/07 02:18:51;;;;;;;19.88;10.55;;;-4.70;99.90;;;;;;5075069;28;20036;-73
2021/03/07 02:21:21;;;;;;;20.73;11.88;;;-4.70;99.90;;;;;;5075295;28;20042;-72
2021/03/07 02:24:03;;;;;;;22.20;11.05;;;-4.70;99.90;;;;;;5075988;28;20028;-72
2021/03/07 02:26:30;;;;;;;18.02;10.60;;;-4.70;99.90;;;;;;5075244;28;20505;-72
2021/03/07 02:28:56;;;;;;;20.52;11.10;;;-4.70;99.90;;;;;;5075039;28;20068;-72
2021/03/07 02:31:25;;;;;;;20.10;11.75;;;-4.80;99.90;;;;;;5077240;28;20031;-72
2021/03/07 02:33:58;;;;;;;19.10;10.27;;;-4.80;99.90;;;;;;5078952;28;20024;-72
2021/03/07 02:36:29;;;;;;;18.33;10.45;;;-4.90;99.90;;;;;;5078682;28;20024;-72
2021/03/07 02:38:57;;;;;;;25.90;11.85;;;-4.90;99.90;;;;;;5078648;28;20545;-72
2021/03/07 02:41:23;;;;;;;18.45;10.15;;;-4.90;99.90;;;;;;5078561;28;20028;-72
2021/03/07 02:43:54;;;;;;;24.20;10.93;;;-5.00;99.90;;;;;;5078368;28;20020;-72
2021/03/07 02:46:21;;;;;;;23.40;10.82;;;-5.00;99.90;;;;;;5078630;28;20107;-72
2021/03/07 02:48:54;;;;;;;21.75;11.18;;;-5.00;99.90;;;;;;5078538;28;20028;-72
2021/03/07 02:51:21;;;;;;;23.52;11.15;;;-5.00;99.90;;;;;;5078411;28;20032;-72
2021/03/07 02:53:49;;;;;;;22.95;11.38;;;-5.00;99.90;;;;;;5078452;28;20032;-72
2021/03/07 02:56:16;;;;;;;19.20;10.32;;;-5.00;99.90;;;;;;5078350;28;20035;-72
2021/03/07 02:58:43;;;;;;;20.20;11.40;;;-5.00;99.90;;;;;;5078197;28;20059;-72
2021/03/07 03:01:13;;;;;;;22.15;11.77;;;-5.00;99.90;;;;;;5078065;28;20447;-72
2021/03/07 03:03:42;;;;;;;20.35;11.07;;;-4.90;99.90;;;;;;5077978;28;20031;-72
2021/03/07 03:06:10;;;;;;;21.00;11.65;;;-4.90;99.90;;;;;;5078089;28;20037;-73
2021/03/07 03:08:37;;;;;;;23.02;11.30;;;-4.80;99.90;;;;;;5077952;28;20029;-72
2021/03/07 03:11:05;;;;;;;21.85;11.18;;;-4.80;99.90;;;;;;5077725;28;20017;-72
2021/03/07 03:13:35;;;;;;;20.05;11.60;;;-4.70;99.90;;;;;;5077891;28;20485;-72
2021/03/07 03:16:03;;;;;;;20.13;11.38;;;-4.80;99.90;;;;;;5077903;28;20119;-72
2021/03/07 03:18:30;;;;;;;21.98;12.23;;;-4.90;99.90;;;;;;5077865;28;20027;-72
2021/03/07 03:21:00;;;;;;;22.50;11.57;;;-4.90;99.90;;;;;;5077801;28;20048;-72
2021/03/07 03:23:26;;;;;;;20.13;11.43;;;-5.00;99.90;;;;;;5077634;28;20504;-72
2021/03/07 03:25:52;;;;;;;23.27;11.40;;;-5.10;99.90;;;;;;5077625;28;20119;-72
2021/03/07 03:28:21;;;;;;;22.77;12.07;;;-5.10;99.90;;;;;;5077581;28;20547;-72
2021/03/07 03:30:47;;;;;;;17.70;10.40;;;-5.10;99.90;;;;;;5103399;22;20036;-72
2021/03/07 03:33:13;;;;;;;20.27;11.10;;;-5.10;99.90;;;;;;5076044;28;20415;-73
2021/03/07 03:35:39;;;;;;;22.92;11.43;;;-5.20;99.90;;;;;;5077459;28;20031;-73
2021/03/07 03:38:05;;;;;;;19.02;10.52;;;-5.20;99.90;;;;;;5077514;28;20053;-72
2021/03/07 03:40:32;;;;;;;18.63;10.73;;;-5.20;99.90;;;;;;5095521;28;20481;-73
2021/03/07 03:43:10;;;;;;;20.42;10.27;;;-5.20;99.90;;;;;;5077240;28;20031;-73
2021/03/07 03:45:40;;;;;;;22.13;10.82;;;-5.20;99.90;;;;;;5077189;28;20036;-72
2021/03/07 03:48:08;;;;;;;19.40;10.52;;;-5.20;99.90;;;;;;5077170;28;20062;-72
2021/03/07 03:50:39;;;;;;;18.58;10.05;;;-5.20;99.90;;;;;;5077237;28;20107;-72
2021/03/07 03:53:11;;;;;;;18.30;10.57;;;-5.30;99.90;;;;;;5077152;28;20028;-73
2021/03/07 03:55:44;;;;;;;19.92;11.38;;;-5.20;99.90;;;;;;5077173;28;20028;-72
2021/03/07 03:58:10;;;;;;;;;;;-5.20;99.90;;;;;;5077496;28;20157;-72
2021/03/07 04:00:39;;;;;;;20.80;10.45;;;-5.20;99.90;;;;;;5076982;28;19953;-72
2021/03/07 04:03:06;;;;;;;21.33;10.68;;;-5.20;99.90;;;;;;5077059;28;20085;-72
2021/03/07 04:05:32;;;;;;;18.33;10.32;;;-5.20;99.90;;;;;;5076935;28;20028;-72
2021/03/07 04:07:59;;;;;;;20.13;10.85;;;-5.30;99.90;;;;;;5095199;28;20020;-72
2021/03/07 04:10:27;;;;;;;18.77;10.52;;;-5.30;99.90;;;;;;5077077;28;20120;-72
2021/03/07 04:12:57;;;;;;;17.23;9.82;;;-5.30;99.90;;;;;;5076752;28;20020;-72
2021/03/07 04:15:24;;;;;;;26.10;11.55;;;-5.30;99.90;;;;;;5093715;28;20028;-73
2021/03/07 04:17:51;;;;;;;27.52;12.15;;;-5.30;99.90;;;;;;5076575;28;20374;-73
2021/03/07 04:20:18;;;;;;;24.00;11.60;;;-5.30;99.90;;;;;;5076523;28;20028;-73
2021/03/07 04:22:47;;;;;;;19.30;11.43;;;-5.40;99.90;;;;;;5076524;28;20046;-73
2021/03/07 04:25:13;;;;;;;22.17;11.07;;;-5.40;99.90;;;;;;5076482;28;20036;-73
2021/03/07 04:27:39;;;;;;;19.13;10.60;;;-5.40;99.90;;;;;;5076991;28;20047;-74
2021/03/07 04:30:06;;;;;;;23.40;11.13;;;-5.40;99.90;;;;;;5076439;28;20077;-74
2021/03/07 04:32:33;;;;;;;22.42;10.23;;;-5.40;99.90;;;;;;5076210;28;20028;-74
2021/03/07 04:35:00;;;;;;;20.15;10.35;;;-5.40;99.90;;;;;;5076199;28;20495;-73
2021/03/07 04:37:26;;;;;;;19.75;10.75;;;-5.50;99.90;;;;;;5076246;28;20028;-73
2021/03/07 04:39:51;;;;;;;19.98;10.30;;;-5.50;99.90;;;;;;5076307;28;20028;-73
2021/03/07 04:42:17;;;;;;;17.85;9.98;;;-5.40;99.90;;;;;;5076157;28;20027;-73
2021/03/07 04:44:43;;;;;;;20.90;10.70;;;-5.50;99.90;;;;;;5076120;28;20024;-73
2021/03/07 04:47:08;;;;;;;18.17;10.43;;;-5.50;99.90;;;;;;5075964;28;20485;-73
2021/03/07 04:49:34;;;;;;;18.90;10.15;;;-5.50;99.90;;;;;;5075970;28;20062;-72
2021/03/07 04:52:00;;;;;;;19.70;10.85;;;-5.50;99.90;;;;;;5075976;28;20473;-73
2021/03/07 04:54:25;;;;;;;21.63;11.35;;;-5.50;99.90;;;;;;5075402;28;20031;-73
2021/03/07 04:56:51;;;;;;;20.05;10.70;;;-5.50;99.90;;;;;;5075929;28;20023;-73
2021/03/07 04:59:17;;;;;;;19.85;9.93;;;-5.50;99.90;;;;;;5094117;28;20032;-73
2021/03/07 05:01:43;;;;;;;22.40;11.65;;;-5.60;99.90;;;;;;5075750;28;20024;-72
2021/03/07 05:04:08;;;;;;;19.60;10.98;;;-5.60;99.90;;;;;;5075864;28;20077;-73
2021/03/07 05:06:38;;;;;;;19.60;10.68;;;-5.60;99.90;;;;;;5094003;28;20018;-72
2021/03/07 05:09:05;;;;;;;17.33;10.20;;;-5.60;99.90;;;;;;5075774;28;20028;-72
2021/03/07 05:11:31;;;;;;;16.63;9.95;;;-5.60;99.90;;;;;;5075793;28;20020;-73
2021/03/07 05:13:57;;;;;;;19.42;10.30;;;-5.70;99.90;;;;;;5075705;28;20082;-73
2021/03/07 05:16:22;;;;;;;19.25;9.68;;;-5.70;99.90;;;;;;5075620;28;20436;-73
2021/03/07 05:18:48;;;;;;;17.08;9.70;;;-5.70;99.90;;;;;;5075612;28;20062;-73
2021/03/07 05:21:14;;;;;;;21.92;11.02;;;-5.70;99.90;;;;;;5075587;28;20028;-73
2021/03/07 05:23:39;;;;;;;19.15;10.45;;;-5.70;99.90;;;;;;5075566;28;20031;-73
2021/03/07 05:26:05;;;;;;;24.90;12.32;;;-5.70;99.90;;;;;;5075594;28;20515;-73
2021/03/07 05:28:31;;;;;;;24.52;11.48;;;-5.70;99.90;;;;;;5075605;28;20121;-73
2021/03/07 05:30:57;;;;;;;22.20;11.02;;;-5.70;99.90;;;;;;5075721;28;20024;-74
2021/03/07 05:33:22;;;;;;;17.23;9.73;;;-5.70;99.90;;;;;;5075452;28;20537;-73
2021/03/07 05:35:48;;;;;;;18.98;10.00;;;-5.80;99.90;;;;;;5075439;28;20028;-73
2021/03/07 05:38:14;;;;;;;20.60;10.80;;;-5.80;99.90;;;;;;5075409;28;20024;-73
2021/03/07 05:40:40;;;;;;;21.05;10.20;;;-5.80;99.90;;;;;;5075415;28;20024;-73
2021/03/07 05:43:07;;;;;;;18.77;10.77;;;-5.80;99.90;;;;;;5075193;28;20024;-73
2021/03/07 05:45:33;;;;;;;24.52;11.20;;;-5.80;99.90;;;;;;5075237;28;20064;-73
2021/03/07 05:47:59;;;;;;;20.17;11.98;;;-5.80;99.90;;;;;;5075239;28;20056;-73
2021/03/07 05:50:25;;;;;;;19.90;10.45;;;-5.80;99.90;;;;;;5075282;28;20020;-73
2021/03/07 05:52:57;;;;;;;18.20;10.60;;;-5.80;99.90;;;;;;5075176;28;20020;-73
2021/03/07 05:55:24;;;;;;;15.68;8.80;;;-5.70;99.90;;;;;;5075258;28;20508;-73
2021/03/07 05:57:50;;;;;;;21.88;10.80;;;-5.70;99.90;;;;;;5075387;28;20382;-73
2021/03/07 06:00:19;;;;;;;21.42;12.35;;;-5.60;99.90;;;;;;5075057;28;20051;-73
2021/03/07 06:02:45;;;;;;;26.38;13.38;;;-5.60;99.90;;;;;;5075069;28;20034;-73
2021/03/07 06:05:12;;;;;;;28.55;14.15;;;-5.50;99.90;;;;;;5075314;28;20024;-73
2021/03/07 06:07:38;;;;;;;28.92;12.93;;;-5.50;99.90;;;;;;5079563;28;20066;-73
2021/03/07 06:10:16;;;;;;;22.10;12.05;;;-5.40;99.90;;;;;;5079210;28;20439;-73
2021/03/07 06:12:54;;;;;;;21.13;12.52;;;-5.30;99.90;;;;;;5079104;28;20050;-73
2021/03/07 06:15:19;;;;;;;22.05;11.55;;;-5.30;99.90;;;;;;5079026;28;20058;-74
2021/03/07 06:17:49;;;;;;;19.83;10.43;;;-5.30;99.90;;;;;;5079124;28;20397;-72
2021/03/07 06:20:17;;;;;;;26.25;13.93;;;-5.20;99.90;;;;;;5078989;28;20036;-73
2021/03/07 06:22:57;;;;;;;27.38;13.38;;;-5.10;99.90;;;;;;5079120;28;20344;-73
2021/03/07 06:25:24;;;;;;;24.65;13.10;;;-5.10;99.90;;;;;;5078976;28;20058;-73
2021/03/07 06:27:50;;;;;;;26.00;13.80;;;-5.00;99.90;;;;;;5078819;28;20542;-73
2021/03/07 06:30:23;;;;;;;26.35;13.32;;;-4.90;99.90;;;;;;5078804;28;20027;-73
2021/03/07 06:32:54;;;;;;;24.50;12.65;;;-4.80;99.90;;;;;;5078710;28;20039;-73
2021/03/07 06:35:26;;;;;;;24.02;11.93;;;-4.70;99.90;;;;;;5078886;28;20031;-73
2021/03/07 06:38:06;;;;;;;21.10;11.82;;;-4.60;99.90;;;;;;5078745;28;20489;-73
2021/03/07 06:40:41;;;;;;;24.55;12.05;;;-4.40;99.90;;;;;;5078561;28;20035;-73
2021/03/07 06:43:20;;;;;;;23.83;12.88;;;-4.20;99.90;;;;;;5078500;28;20069;-73
2021/03/07 06:45:49;;;;;;;21.52;12.15;;;-4.00;99.90;;;;;;5078434;28;20519;-74
2021/03/07 06:48:15;;;;;;;19.63;11.40;;;-3.70;99.90;;;;;;5078415;28;20047;-74
2021/03/07 06:50:55;;;;;;;21.10;11.68;;;-3.50;99.90;;;;;;5078387;28;20118;-74
2021/03/07 06:53:35;;;;;;;19.50;11.60;;;-3.20;99.90;;;;;;5078415;28;20077;-73
2021/03/07 06:56:01;;;;;;;21.92;11.30;;;-2.90;99.90;;;;;;5078565;28;20474;-73
2021/03/07 06:58:27;;;;;;;19.27;10.35;;;-2.60;99.90;;;;;;5078511;28;20043;-74
2021/03/07 07:00:53;;;;;;;17.95;10.75;;;-2.40;99.90;;;;;;5078142;28;20082;-74
2021/03/07 07:03:19;;;;;;;19.70;10.25;;;-2.10;99.90;;;;;;5078142;28;20115;-73
2021/03/07 07:05:47;;;;;;;14.25;9.93;;;-1.90;99.90;;;;;;5078150;28;20111;-74
2021/03/07 07:08:15;;;;;;;17.65;10.75;;;-1.60;99.90;;;;;;5077973;28;20031;-73
2021/03/07 07:11:07;;;;;;;17.10;10.15;;;-1.40;99.90;;;;;;5078028;28;20016;-74
2021/03/07 07:13:46;;;;;;;20.08;10.43;;;-1.10;99.90;;;;;;5075108;28;20035;-74
2021/03/07 07:16:14;;;;;;;18.58;10.82;;;-0.80;99.90;;;;;;5077641;28;20024;-74
2021/03/07 07:18:41;;;;;;;15.85;9.80;;;-0.60;99.90;;;;;;5077938;28;20023;-74
2021/03/07 07:21:16;;;;;;;17.17;10.27;;;-0.30;99.90;;;;;;5077863;28;20020;-75
2021/03/07 07:23:42;;;;;;;17.92;9.15;;;-0.10;99.90;;;;;;5077811;28;20093;-74
2021/03/07 07:26:08;;;;;;;14.88;8.95;;;0.20;99.90;;;;;;5077747;28;20017;-74
2021/03/07 07:28:35;;;;;;;15.43;10.23;;;0.40;99.90;;;;;;5077826;28;20035;-74
2021/03/07 07:31:20;;;;;;;18.15;10.70;;;0.60;99.90;;;;;;5077557;28;20023;-74
2021/03/07 07:34:02;;;;;;;14.63;8.88;;;0.80;99.90;;;;;;5077611;28;20119;-74
2021/03/07 07:36:51;;;;;;;14.50;8.20;;;1.10;99.90;;;;;;5077653;28;20101;-74
2021/03/07 07:39:23;;;;;;;13.05;8.60;;;1.30;99.90;;;;;;5094402;28;20057;-75
2021/03/07 07:41:49;;;;;;;16.15;9.75;;;1.60;99.90;;;;;;5077451;28;20023;-74
2021/03/07 07:44:30;;;;;;;16.85;10.13;;;1.70;99.90;;;;;;5077685;28;20156;-74
2021/03/07 07:46:57;;;;;;;17.00;10.40;;;1.90;99.90;;;;;;5077438;28;20089;-74
2021/03/07 07:49:36;;;;;;;15.60;9.63;;;2.10;99.90;;;;;;5077342;28;20473;-74
2021/03/07 07:52:25;;;;;;;14.13;9.88;;;2.20;99.90;;;;;;5077159;28;20393;-73
2021/03/07 07:55:00;;;;;;;15.98;10.45;;;2.40;99.90;;;;;;5077080;28;20086;-74
2021/03/07 07:57:32;;;;;;;15.70;9.65;;;2.70;99.90;;;;;;5077737;28;20032;-74
2021/03/07 07:59:59;;;;;;;11.00;7.10;;;2.90;99.90;;;;;;5094032;28;20024;-74
2021/03/07 08:02:43;;;;;;;14.60;9.35;;;3.00;99.90;;;;;;5095218;28;20474;-74
2021/03/07 08:05:21;;;;;;;13.02;8.27;;;3.20;99.90;;;;;;5094325;28;20024;-74
2021/03/07 08:08:09;;;;;;;16.70;9.20;;;3.50;99.90;;;;;;5093873;28;20077;-75
2021/03/07 08:10:41;;;;;;;12.15;8.68;;;3.70;99.90;;;;;;5077684;28;20048;-75
2021/03/07 08:13:27;;;;;;;14.60;9.05;;;3.90;99.90;;;;;;5094685;28;20020;-75
2021/03/07 08:15:54;;;;;;;17.30;9.68;;;4.10;99.90;;;;;;5067097;28;20034;-76
2021/03/07 08:18:22;;;;;;;14.45;9.07;;;4.20;99.90;;;;;;5077105;28;20028;-75
2021/03/07 08:20:51;;;;;;;11.98;8.75;;;4.40;99.90;;;;;;5076694;28;20028;-75
2021/03/07 08:23:18;;;;;;;13.85;8.45;;;4.80;99.90;;;;;;5093695;28;20107;-75
2021/03/07 08:25:50;;;;;;;12.68;8.70;;;5.00;99.90;;;;;;5076823;28;20532;-74
2021/03/07 08:28:27;;;;;;;14.30;8.50;;;5.50;99.90;;;;;;5094108;28;20108;-75
2021/03/07 08:31:00;;;;;;;13.68;8.27;;;5.90;99.90;;;;;;5093187;28;20020;-75
2021/03/07 08:33:39;;;;;;;15.07;9.23;;;6.00;99.90;;;;;;5095101;28;20431;-74
2021/03/07 08:36:11;;;;;;;13.05;8.35;;;6.10;99.00;;;;;;5076446;28;20028;-75
2021/03/07 08:38:58;;;;;;;13.30;8.73;;;6.20;98.60;;;;;;5093248;28;20027;-75
2021/03/07 08:41:46;;;;;;;11.40;8.73;;;6.90;95.00;;;;;;5076232;28;20024;-75
2021/03/07 08:44:16;;;;;;;11.60;8.68;;;7.70;92.20;;;;;;5076206;28;20024;-75
2021/03/07 08:46:41;;;;;;;9.88;7.10;;;8.70;87.80;;;;;;5076224;28;20024;-76
2021/03/07 08:49:11;;;;;;;11.68;8.35;;;9.90;79.30;;;;;;5093078;28;20028;-75
2021/03/07 08:51:42;;;;;;;13.20;8.63;;;11.50;67.90;;;;;;5076040;28;20026;-75
2021/03/07 08:54:10;;;;;;;12.07;7.72;;;13.00;58.50;;;;;;5076692;28;20078;-76
2021/03/07 08:56:37;;;;;;;10.80;7.93;;;16.20;50.20;;;;;;5076031;28;20123;-75
2021/03/07 08:59:04;;;;;;;9.38;7.57;;;19.60;39.60;;;;;;5076019;28;20127;-76
2021/03/07 09:01:30;;;;;;;9.63;7.10;;;22.50;33.70;;;;;;5075937;28;20097;-76
2021/03/07 09:03:58;;;;;;;10.70;8.18;;;25.10;29.20;;;;;;5076142;28;20440;-76
2021/03/07 09:06:29;;;;;;;10.15;7.57;;;26.90;26.40;;;;;;5075786;28;20107;-76
2021/03/07 09:09:06;;;;;;;8.77;7.60;;;27.90;24.90;;;;;;5075780;28;20024;-76
2021/03/07 09:11:32;;;;;;;8.77;7.88;;;29.50;23.60;;;;;;5075751;28;20431;-76
2021/03/07 09:13:58;;;;;;;8.60;7.68;;;30.70;22.30;;;;;;5075598;28;20020;-76
2021/03/07 09:16:36;;;;;;;8.48;7.55;;;30.70;21.90;;;;;;5075913;28;20501;-76
2021/03/07 09:19:02;;;;;;;8.77;7.50;;;29.10;21.80;;;;;;5075651;28;20031;-76
2021/03/07 09:21:28;;;;;;;7.95;7.15;;;28.80;22.90;;;;;;5075456;28;20027;-76
2021/03/07 09:23:53;;;;;;;8.98;7.88;;;30.00;22.20;;;;;;5075469;28;20028;-76
2021/03/07 09:26:21;;;;;;;9.60;7.60;;;30.30;21.30;;;;;;5075568;28;20530;-76
2021/03/07 09:28:49;;;;;;;7.78;6.97;;;29.40;21.80;;;;;;5075489;28;20020;-76
2021/03/07 09:33:50;;;;;;;8.52;7.72;;;31.50;21.20;;;;;;5072661;28;20052;-77
2021/03/07 09:36:17;;;;;;;7.75;6.25;;;31.40;20.50;;;;;;5072309;28;20016;-77
2021/03/07 09:38:55;;;;;;;8.50;7.30;;;31.80;20.90;;;;;;5072481;28;20082;-75
2021/03/07 09:41:32;;;;;;;7.57;6.78;;;33.40;19.60;;;;;;5072165;28;20082;-75
2021/03/07 09:44:15;;;;;;;7.80;6.45;;;34.40;19.40;;;;;;5072184;28;20023;-75
2021/03/07 09:46:46;;;;;;;7.97;7.18;;;34.50;18.70;;;;;;5072371;28;20017;-74
2021/03/07 09:49:16;;;;;;;6.50;5.90;;;34.40;18.80;;;;;;5073355;28;20082;-75
2021/03/07 09:51:43;;;;;;;6.85;6.22;;;35.00;19.10;;;;;;5074433;28;20029;-76
2021/03/07 09:54:11;;;;;;;7.70;7.00;;;36.10;18.10;;;;;;5074704;28;20111;-76
2021/03/07 09:56:38;;;;;;;6.65;6.05;;;37.10;17.70;;;;;;5074703;28;20036;-76
2021/03/07 09:59:17;;;;;;;7.22;6.53;;;37.60;17.40;;;;;;5074798;28;20028;-76
2021/03/07 10:01:48;;;;;;;6.00;5.38;;;38.10;17.00;;;;;;5075041;28;20031;-76
2021/03/07 10:04:35;;;;;;;7.20;6.50;;;38.50;16.80;;;;;;5074424;28;20020;-76
2021/03/07 10:07:21;;;;;;;7.82;7.00;;;37.70;16.60;;;;;;5074532;28;20025;-76
2021/03/07 10:10:01;;;;;;;7.00;6.38;;;36.90;17.00;;;;;;5073698;28;20024;-76
2021/03/07 10:12:43;;;;;;;6.30;5.70;;;37.00;16.80;;;;;;5073161;28;20520;-76
2021/03/07 10:15:13;;;;;;;6.70;6.03;;;37.10;17.00;;;;;;5073639;28;20535;-76
2021/03/07 10:17:41;;;;;;;6.70;6.05;;;37.70;16.70;;;;;;5073753;28;20032;-76
2021/03/07 10:20:11;;;;;;;6.43;5.82;;;38.00;16.50;;;;;;5073106;28;20024;-77
2021/03/07 10:22:42;;;;;;;7.22;6.60;;;38.60;16.40;;;;;;5071621;28;20025;-76
2021/03/07 10:25:26;;;;;;;7.78;7.07;;;38.60;16.20;;;;;;5071882;28;20394;-76
2021/03/07 10:28:01;;;;;;;6.63;6.03;;;38.30;16.40;;;;;;5071575;28;20393;-77
2021/03/07 10:30:32;;;;;;;7.00;6.30;;;38.80;16.30;;;;;;5071438;28;20108;-76
2021/03/07 10:33:16;;;;;;;6.18;5.55;;;39.00;16.00;;;;;;5071265;28;20060;-76
2021/03/07 10:36:01;;;;;;;6.80;6.20;;;39.60;15.80;;;;;;5071305;28;20044;-76
2021/03/07 10:38:31;;;;;;;6.32;5.70;;;39.80;15.40;;;;;;5071361;28;20021;-76
2021/03/07 10:40:57;;;;;;;6.00;5.50;;;39.90;15.50;;;;;;5071466;28;20043;-76
2021/03/07 10:43:23;;;;;;;5.25;4.53;;;40.30;15.70;;;;;;5071222;28;20482;-76
2021/03/07 10:45:49;;;;;;;6.05;5.53;;;40.60;15.30;;;;;;5071209;28;20029;-76
2021/03/07 10:48:15;;;;;;;6.28;5.50;;;40.00;15.30;;;;;;5071522;28;20363;-76
2021/03/07 10:50:46;;;;;;;6.85;6.25;;;39.80;15.40;;;;;;5071248;28;20032;-77
2021/03/07 10:53:13;;;;;;;6.32;5.72;;;39.00;15.70;;;;;;5074573;28;20028;-76
2021/03/07 10:55:39;;;;;;;5.53;5.03;;;38.80;15.90;;;;;;5074838;28;20074;-77
2021/03/07 10:58:05;;;;;;;7.38;6.70;;;39.00;16.20;;;;;;5075706;28;20119;-76
2021/03/07 11:00:31;;;;;;;6.50;5.88;;;39.40;15.60;;;;;;5074863;28;20020;-77
2021/03/07 11:02:57;;;;;;;6.95;6.25;;;39.40;15.70;;;;;;5074840;28;20075;-76
2021/03/07 11:05:23;;;;;;;6.53;5.93;;;39.60;15.70;;;;;;5074854;28;20072;-77
2021/03/07 11:07:49;;;;;;;5.63;5.03;;;39.20;15.60;;;;;;5074739;28;20074;-76
2021/03/07 11:10:21;;;;;;;5.28;4.78;;;38.90;16.00;;;;;;5074842;28;20074;-77
2021/03/07 11:12:47;;;;;;;5.35;4.85;;;38.90;16.50;;;;;;5074673;28;20025;-77
2021/03/07 11:15:13;;;;;;;6.40;5.80;;;37.40;16.10;;;;;;5074420;28;20029;-77
2021/03/07 11:17:39;;;;;;;6.50;5.38;;;38.30;16.50;;;;;;5074584;28;20560;-77
2021/03/07 11:20:07;;;;;;;5.53;5.03;;;39.30;16.20;;;;;;5074528;28;20029;-77
2021/03/07 11:22:33;;;;;;;5.78;5.22;;;40.20;15.60;;;;;;5074351;28;20017;-77
2021/03/07 11:24:59;;;;;;;6.28;5.68;;;39.30;15.50;;;;;;5074364;28;20030;-77
2021/03/07 11:27:24;;;;;;;6.72;6.13;;;39.80;15.40;;;;;;5074336;28;20493;-76
2021/03/07 11:29:50;;;;;;;6.47;5.88;;;39.60;15.50;;;;;;5075354;28;20071;-77
2021/03/07 11:32:16;;;;;;;7.10;6.43;;;38.80;15.60;;;;;;5074019;28;20055;-77
2021/03/07 11:34:41;;;;;;;6.55;5.85;;;38.90;15.90;;;;;;5074198;28;20391;-76
2021/03/07 11:37:07;;;;;;;5.80;5.25;;;39.60;15.70;;;;;;5074163;28;20024;-77
2021/03/07 11:39:32;;;;;;;5.40;4.90;;;40.40;15.80;;;;;;5075884;28;20381;-76
2021/03/07 11:41:58;;;;;;;5.38;4.88;;;41.30;15.40;;;;;;5073988;28;20029;-77
2021/03/07 11:44:24;;;;;;;6.55;5.72;;;41.80;14.90;;;;;;5074094;28;20025;-77
2021/03/07 11:46:52;;;;;;;6.88;6.28;;;42.00;15.50;;;;;;5074049;28;20028;-77
2021/03/07 11:49:19;;;;;;;6.13;5.55;;;41.80;14.90;;;;;;5073914;28;20490;-77
2021/03/07 11:51:44;;;;;;;5.70;5.15;;;41.10;15.30;;;;;;5073950;28;20029;-77
2021/03/07 11:54:10;;;;;;;7.00;6.40;;;41.10;15.50;;;;;;5073815;28;20131;-77
2021/03/07 11:56:36;;;;;;;7.32;6.63;;;40.60;15.80;;;;;;5073769;28;20019;-76
2021/03/07 11:59:01;;;;;;;6.20;5.57;;;40.50;15.40;;;;;;5073825;28;20029;-77
2021/03/07 12:01:27;;;;;;;5.90;5.38;;;40.50;15.40;;;;;;5073719;28;20389;-76
2021/03/07 12:03:52;;;;;;;5.30;4.80;;;41.00;15.60;;;;;;5072429;28;20020;-77
2021/03/07 12:06:18;;;;;;;5.78;5.18;;;41.80;15.50;;;;;;5073620;28;20047;-76
2021/03/07 12:08:43;;;;;;;5.28;4.75;;;42.10;15.40;;;;;;5073551;28;20129;-77
2021/03/07 12:11:09;;;;;;;5.85;4.90;;;42.20;15.50;;;;;;5073512;28;20032;-77
2021/03/07 12:13:34;;;;;;;6.97;6.28;;;42.10;15.40;;;;;;5073340;28;20111;-77
2021/03/07 12:16:00;;;;;;;5.60;5.10;;;42.20;15.20;;;;;;5073361;28;20035;-77
2021/03/07 12:18:26;;;;;;;6.63;5.97;;;42.10;15.30;;;;;;5073734;28;20462;-77
2021/03/07 12:20:52;;;;;;;7.20;6.50;;;40.80;15.70;;;;;;5073395;28;20039;-77
2021/03/07 12:23:17;;;;;;;6.10;5.53;;;40.00;16.00;;;;;;5073202;28;20016;-77
2021/03/07 12:25:43;;;;;;;6.35;5.75;;;39.00;16.80;;;;;;5073154;28;20029;-77
2021/03/07 12:28:08;;;;;;;5.70;5.15;;;39.30;16.90;;;;;;5073198;28;20027;-77
2021/03/07 12:30:35;;;;;;;6.82;6.18;;;39.80;16.70;;;;;;5073166;28;20024;-77
2021/03/07 12:33:00;;;;;;;6.25;5.45;;;38.90;16.60;;;;;;5072810;28;20037;-77
2021/03/07 12:35:26;;;;;;;6.82;6.22;;;39.00;17.10;;;;;;5072946;28;20051;-77
2021/03/07 12:37:52;;;;;;;7.25;6.18;;;38.80;16.70;;;;;;5073000;28;20029;-77
2021/03/07 12:40:17;;;;;;;8.43;7.63;;;38.50;16.90;;;;;;5072967;28;20043;-77
2021/03/07 12:42:43;;;;;;;8.25;7.55;;;38.70;16.90;;;;;;5073116;28;20063;-77
2021/03/07 12:45:09;;;;;;;8.88;7.97;;;37.70;17.30;;;;;;5072866;28;20028;-76
2021/03/07 12:47:35;;;;;;;9.55;8.45;;;34.80;18.70;;;;;;5072806;28;20078;-76
2021/03/07 12:50:03;;;;;;;9.00;8.18;;;31.80;20.90;;;;;;5072787;28;20028;-76